Time;durP1;ratioP1;P1;durP2;ratioP2;P2;SDS_P1;SDS_P2;PMS_P1;PMS_P2;Temp;Humidity;BMP_temperature;BMP_pressure;BME280_temperature;BME280_humidity;BME280_pressure;Samples;Min_cycle;Max_cycle;Signal;HPM_P1;HPM_P2
2022/11/25 00:02:06;;;;;;;16.13;3.95;;;7.60;99.90;;;;;;5048519;28;20037;-56
2022/11/25 00:04:35;;;;;;;10.63;3.90;;;7.70;99.90;;;;;;5050839;28;20106;-57
2022/11/25 00:07:01;;;;;;;14.80;3.70;;;7.70;99.90;;;;;;5048125;28;20041;-51
2022/11/25 00:09:27;;;;;;;15.70;3.63;;;7.60;99.90;;;;;;5044620;28;20044;-54
2022/11/25 00:11:53;;;;;;;15.00;4.20;;;7.70;99.90;;;;;;5046597;28;20057;-52
2022/11/25 00:14:18;;;;;;;13.27;3.58;;;7.70;99.90;;;;;;5046986;28;20121;-53
2022/11/25 00:16:44;;;;;;;16.75;3.80;;;7.70;99.90;;;;;;5047068;28;21711;-53
2022/11/25 00:19:10;;;;;;;18.45;4.50;;;7.70;99.90;;;;;;5045803;28;20380;-56
2022/11/25 00:21:36;;;;;;;13.63;3.42;;;7.70;99.90;;;;;;5029140;28;20040;-55
2022/11/25 00:24:04;;;;;;;16.10;3.97;;;7.80;99.90;;;;;;5049456;28;20115;-52
2022/11/25 00:26:32;;;;;;;17.17;3.53;;;7.80;99.90;;;;;;5046464;28;20524;-55
2022/11/25 00:28:59;;;;;;;14.20;3.78;;;;;;;;;;5046598;28;20045;-53
2022/11/25 00:31:30;;;;;;;13.82;3.53;;;7.80;99.90;;;;;;5047400;28;20573;-53
2022/11/25 00:33:56;;;;;;;13.88;3.50;;;7.80;99.90;;;;;;5048492;28;20048;-55
2022/11/25 00:36:27;;;;;;;18.75;4.20;;;7.90;99.90;;;;;;5054330;28;20041;-55
2022/11/25 00:38:58;;;;;;;13.10;3.60;;;7.90;99.90;;;;;;5049867;28;20475;-55
2022/11/25 00:46:54;;;;;;;14.15;3.80;;;7.90;99.90;;;;;;5054128;28;20049;-55
2022/11/25 00:49:20;;;;;;;12.63;3.25;;;7.90;99.90;;;;;;5052333;28;20041;-53
2022/11/25 00:51:46;;;;;;;12.93;3.13;;;8.00;99.90;;;;;;5053310;28;20120;-52
2022/11/25 00:54:11;;;;;;;13.43;3.55;;;8.00;99.90;;;;;;5034438;28;20384;-55
2022/11/25 00:56:37;;;;;;;13.73;3.35;;;8.00;99.90;;;;;;5052444;28;20041;-52
2022/11/25 00:59:03;;;;;;;18.67;3.83;;;8.10;99.90;;;;;;5048813;28;20094;-51
2022/11/25 01:01:28;;;;;;;11.70;3.53;;;8.10;99.90;;;;;;5043161;28;20498;-52
2022/11/25 01:03:54;;;;;;;16.20;3.65;;;8.00;99.90;;;;;;5050243;28;20490;-55
2022/11/25 01:06:20;;;;;;;16.23;3.40;;;8.10;99.90;;;;;;5045239;28;20086;-53
2022/11/25 01:08:46;;;;;;;16.75;3.42;;;8.10;99.90;;;;;;5045196;28;20483;-54
2022/11/25 01:11:14;;;;;;;13.18;3.75;;;8.10;99.90;;;;;;5045094;28;20048;-52
2022/11/25 01:13:40;;;;;;;10.85;3.00;;;8.10;99.90;;;;;;5050520;28;20119;-55
2022/11/25 01:16:09;;;;;;;13.25;3.28;;;8.10;99.90;;;;;;5044587;28;20566;-55
2022/11/25 01:18:34;;;;;;;11.20;3.72;;;8.10;99.90;;;;;;5046707;28;20227;-51
2022/11/25 01:21:08;;;;;;;14.55;3.30;;;8.10;99.90;;;;;;5045375;28;20845;-52
2022/11/25 01:23:34;;;;;;;14.13;3.70;;;8.20;99.90;;;;;;5044546;28;20049;-55
2022/11/25 01:26:02;;;;;;;14.73;3.90;;;8.20;99.90;;;;;;5045523;28;20563;-52
2022/11/25 01:28:28;;;;;;;18.35;3.67;;;8.20;99.90;;;;;;5046406;28;20041;-52
2022/11/25 01:31:05;;;;;;;14.52;3.25;;;8.20;99.90;;;;;;5044568;28;21756;-54
2022/11/25 01:33:31;;;;;;;;;;;8.30;99.90;;;;;;5046307;28;20552;-54
2022/11/25 01:36:05;;;;;;;12.68;3.33;;;8.30;99.90;;;;;;5046642;28;19929;-53
2022/11/25 01:38:31;;;;;;;17.15;3.22;;;;;;;;;;5045533;28;20055;-56
2022/11/25 01:40:57;;;;;;;12.25;3.40;;;8.40;99.90;;;;;;5051196;28;20498;-52
2022/11/25 01:43:24;;;;;;;17.00;3.22;;;8.40;99.90;;;;;;5031844;28;20048;-55
2022/11/25 01:45:51;;;;;;;15.90;3.67;;;8.40;99.90;;;;;;5046508;28;20049;-53
2022/11/25 01:48:27;;;;;;;15.85;3.70;;;8.40;99.90;;;;;;5047543;28;20045;-52
2022/11/25 01:50:53;;;;;;;17.35;3.70;;;8.40;99.90;;;;;;5045166;28;20045;-54
2022/11/25 01:53:20;;;;;;;15.80;3.92;;;8.30;99.90;;;;;;5042930;28;20048;-55
2022/11/25 01:55:55;;;;;;;18.15;3.35;;;8.30;99.90;;;;;;5045499;28;20037;-57
2022/11/25 01:58:27;;;;;;;16.50;3.90;;;8.30;99.90;;;;;;5047006;28;20041;-55
2022/11/25 02:00:53;;;;;;;13.55;3.72;;;8.20;99.90;;;;;;5044836;28;20045;-56
2022/11/25 02:03:26;;;;;;;14.80;3.75;;;8.20;99.90;;;;;;5029983;28;20044;-56
2022/11/25 02:06:09;;;;;;;14.73;3.88;;;8.20;99.90;;;;;;5045732;28;20051;-53
2022/11/25 02:08:34;;;;;;;14.05;3.60;;;8.20;99.90;;;;;;5042823;28;20063;-52
2022/11/25 02:11:03;;;;;;;14.30;3.90;;;8.20;99.90;;;;;;5041427;28;20044;-53
2022/11/25 02:13:30;;;;;;;18.90;3.75;;;8.20;99.90;;;;;;5044007;28;20541;-56
2022/11/25 02:15:56;;;;;;;14.80;4.10;;;8.20;99.90;;;;;;5045438;28;20037;-56
2022/11/25 02:18:22;;;;;;;18.35;4.15;;;8.10;99.90;;;;;;5047250;28;20052;-53
2022/11/25 02:20:47;;;;;;;10.23;4.28;;;8.10;99.90;;;;;;5045960;28;20048;-56
2022/11/25 02:23:16;;;;;;;18.95;3.70;;;8.00;99.90;;;;;;5024893;28;20048;-52
2022/11/25 02:25:43;;;;;;;17.23;4.57;;;8.00;99.90;;;;;;5046490;28;20060;-56
2022/11/25 02:28:19;;;;;;;13.77;3.88;;;8.00;99.90;;;;;;5045267;28;20144;-55
2022/11/25 02:30:46;;;;;;;16.40;4.03;;;8.00;99.90;;;;;;5049010;28;20036;-54
2022/11/25 02:33:12;;;;;;;16.25;4.72;;;8.00;99.90;;;;;;5045909;28;20116;-56
2022/11/25 02:35:42;;;;;;;16.00;4.13;;;8.00;99.90;;;;;;5047182;28;20107;-56
2022/11/25 02:38:26;;;;;;;12.85;3.20;;;8.00;99.90;;;;;;5046997;28;20044;-57
2022/11/25 02:40:55;;;;;;;20.73;4.10;;;8.00;99.90;;;;;;5043344;28;20506;-56
2022/11/25 02:43:21;;;;;;;20.65;4.68;;;8.00;99.90;;;;;;5050605;28;20434;-56
2022/11/25 02:46:01;;;;;;;15.30;4.43;;;8.00;99.90;;;;;;5047667;28;20052;-56
2022/11/25 02:48:29;;;;;;;21.52;4.32;;;8.00;99.90;;;;;;5048375;28;20091;-56
2022/11/25 02:50:55;;;;;;;20.83;4.53;;;8.00;99.90;;;;;;5049366;28;20106;-55
2022/11/25 02:53:21;;;;;;;14.75;3.92;;;8.00;99.90;;;;;;5049691;28;20090;-53
2022/11/25 02:55:47;;;;;;;12.95;3.80;;;8.00;99.90;;;;;;5045813;28;20049;-57
2022/11/25 02:58:14;;;;;;;25.55;5.03;;;8.00;99.90;;;;;;5047388;28;20041;-55
2022/11/25 03:00:40;;;;;;;12.15;3.70;;;8.00;99.90;;;;;;5047584;28;20087;-57
2022/11/25 03:03:06;;;;;;;16.95;3.75;;;8.00;99.90;;;;;;5047433;28;20491;-55
2022/11/25 03:05:31;;;;;;;15.35;3.97;;;8.00;99.90;;;;;;5046454;28;20527;-54
2022/11/25 03:07:57;;;;;;;15.40;4.40;;;8.00;99.90;;;;;;5048326;28;20553;-56
2022/11/25 03:10:23;;;;;;;18.70;3.95;;;8.00;99.90;;;;;;5045741;28;20052;-56
2022/11/25 03:12:48;;;;;;;18.70;4.65;;;8.10;99.90;;;;;;5049531;28;20029;-58
2022/11/25 03:15:14;;;;;;;19.25;4.00;;;8.10;99.90;;;;;;5048832;28;20067;-53
2022/11/25 03:17:41;;;;;;;16.52;3.90;;;8.10;99.90;;;;;;5054741;28;20040;-56
2022/11/25 03:20:08;;;;;;;19.45;4.70;;;8.10;99.90;;;;;;5029660;28;20080;-57
2022/11/25 03:22:34;;;;;;;16.77;4.07;;;8.10;99.90;;;;;;5048285;28;20098;-57
2022/11/25 03:25:00;;;;;;;18.10;4.57;;;8.10;99.90;;;;;;5048545;28;20044;-52
2022/11/25 03:27:25;;;;;;;18.05;4.90;;;8.10;99.90;;;;;;5048818;28;20048;-57
2022/11/25 03:29:51;;;;;;;15.98;5.25;;;8.00;99.90;;;;;;5046838;28;20044;-57
2022/11/25 03:32:17;;;;;;;14.95;4.20;;;8.10;99.90;;;;;;5047589;28;20094;-57
2022/11/25 03:34:42;;;;;;;21.10;4.85;;;8.10;99.90;;;;;;5049819;28;20063;-56
2022/11/25 03:37:08;;;;;;;17.80;4.93;;;8.10;99.90;;;;;;5046561;28;20084;-58
2022/11/25 03:39:34;;;;;;;13.73;4.07;;;8.00;99.90;;;;;;5048851;28;20400;-56
2022/11/25 03:41:59;;;;;;;21.70;4.38;;;8.10;99.90;;;;;;5052565;28;20044;-56
2022/11/25 03:44:25;;;;;;;19.92;4.93;;;8.00;99.90;;;;;;5053275;28;20128;-57
2022/11/25 03:46:51;;;;;;;19.85;4.47;;;8.00;99.90;;;;;;5053617;28;20037;-56
2022/11/25 03:49:16;;;;;;;19.58;4.50;;;8.10;99.90;;;;;;5052932;28;20039;-54
2022/11/25 03:51:42;;;;;;;18.65;4.93;;;8.10;99.90;;;;;;5049573;28;20137;-56
2022/11/25 03:54:08;;;;;;;18.48;4.97;;;8.10;99.90;;;;;;5035036;28;20110;-55
2022/11/25 03:56:34;;;;;;;19.42;4.50;;;8.10;99.90;;;;;;5051546;28;20044;-57
2022/11/25 03:58:59;;;;;;;13.90;4.50;;;8.10;99.90;;;;;;5054738;28;20048;-56
2022/11/25 04:01:25;;;;;;;17.80;4.88;;;8.10;99.90;;;;;;5054933;28;20475;-52
2022/11/25 04:03:50;;;;;;;15.00;4.40;;;8.10;99.90;;;;;;5055024;28;20041;-54
2022/11/25 04:06:18;;;;;;;12.48;4.68;;;8.20;99.90;;;;;;5055490;28;20037;-56
2022/11/25 04:08:44;;;;;;;;;;;8.20;99.90;;;;;;5055432;28;20060;-56
2022/11/25 04:11:10;;;;;;;14.73;4.38;;;8.20;99.90;;;;;;5050383;28;19929;-55
2022/11/25 04:13:36;;;;;;;17.50;4.90;;;8.20;99.90;;;;;;5052163;28;20139;-52
2022/11/25 04:16:01;;;;;;;16.73;4.45;;;8.30;99.90;;;;;;5052559;28;20037;-52
2022/11/25 04:18:27;;;;;;;13.60;4.28;;;8.30;99.90;;;;;;5050639;28;20483;-53
2022/11/25 04:20:53;;;;;;;19.65;5.10;;;8.30;99.90;;;;;;5049888;28;20393;-55
2022/11/25 04:23:18;;;;;;;21.88;5.65;;;8.30;99.90;;;;;;5048231;28;20396;-57
2022/11/25 04:25:44;;;;;;;15.32;4.53;;;8.30;99.90;;;;;;5046345;28;20040;-55
2022/11/25 04:28:09;;;;;;;16.05;5.25;;;8.40;99.90;;;;;;5042110;28;20041;-56
2022/11/25 04:30:36;;;;;;;16.63;4.55;;;8.40;99.90;;;;;;5047232;28;20394;-56
2022/11/25 04:33:02;;;;;;;15.10;4.45;;;8.40;99.90;;;;;;5044070;28;20531;-53
2022/11/25 04:35:27;;;;;;;19.85;5.00;;;8.40;99.90;;;;;;5046804;28;20135;-54
2022/11/25 04:37:54;;;;;;;19.83;4.90;;;8.40;99.90;;;;;;5026093;28;20491;-55
2022/11/25 04:40:19;;;;;;;18.50;4.68;;;8.40;99.90;;;;;;5048141;28;20043;-56
2022/11/25 04:42:45;;;;;;;14.02;4.72;;;8.40;99.90;;;;;;5043991;28;20119;-55
2022/11/25 04:45:14;;;;;;;19.17;4.72;;;8.40;99.90;;;;;;5043863;28;20041;-56
2022/11/25 04:47:41;;;;;;;21.13;5.40;;;8.40;99.90;;;;;;5045186;28;20073;-55
2022/11/25 04:50:12;;;;;;;21.58;5.57;;;8.40;99.90;;;;;;5046439;28;20041;-57
2022/11/25 04:52:38;;;;;;;19.08;4.95;;;8.40;99.90;;;;;;5043140;28;20679;-54
2022/11/25 04:55:04;;;;;;;21.83;5.50;;;8.40;99.90;;;;;;5046123;28;20037;-56
2022/11/25 04:57:29;;;;;;;15.15;5.15;;;8.40;99.90;;;;;;5044745;28;20083;-57
2022/11/25 04:59:55;;;;;;;18.92;5.35;;;8.40;99.90;;;;;;5048164;28;20384;-53
2022/11/25 05:02:23;;;;;;;15.25;5.15;;;8.40;99.90;;;;;;5044115;28;20044;-56
2022/11/25 05:04:52;;;;;;;17.77;5.85;;;8.40;99.90;;;;;;5049708;28;20087;-58
2022/11/25 05:07:19;;;;;;;20.10;5.88;;;8.40;99.90;;;;;;5045299;28;20398;-56
2022/11/25 05:09:45;;;;;;;20.90;5.65;;;8.40;99.90;;;;;;5045782;28;20044;-55
2022/11/25 05:12:16;;;;;;;18.67;5.35;;;8.40;99.90;;;;;;5027573;28;20070;-56
2022/11/25 05:14:41;;;;;;;19.75;5.90;;;8.40;99.90;;;;;;5044701;28;20107;-54
2022/11/25 05:17:12;;;;;;;17.10;5.25;;;8.40;99.90;;;;;;5045680;28;20041;-55
2022/11/25 05:19:38;;;;;;;22.83;5.70;;;8.40;99.90;;;;;;5047784;28;20053;-57
2022/11/25 05:22:03;;;;;;;15.80;5.40;;;8.40;99.90;;;;;;5049214;28;20036;-56
2022/11/25 05:24:29;;;;;;;21.17;5.93;;;8.30;99.90;;;;;;5050362;28;20592;-54
2022/11/25 05:26:55;;;;;;;19.38;5.45;;;8.30;99.90;;;;;;5049813;28;20087;-55
2022/11/25 05:29:20;;;;;;;17.80;5.55;;;8.30;99.90;;;;;;5050454;28;20041;-55
2022/11/25 05:31:46;;;;;;;20.93;6.23;;;8.20;99.90;;;;;;5049204;28;20029;-54
2022/11/25 05:34:12;;;;;;;21.88;6.63;;;8.20;99.90;;;;;;5048961;28;20136;-51
2022/11/25 05:36:37;;;;;;;20.15;6.95;;;8.20;99.90;;;;;;5048564;28;20750;-54
2022/11/25 05:39:03;;;;;;;17.98;6.18;;;8.20;99.90;;;;;;5047999;28;20048;-56
2022/11/25 05:41:29;;;;;;;19.33;6.25;;;8.20;99.90;;;;;;5050197;28;20094;-54
2022/11/25 05:43:54;;;;;;;19.67;6.57;;;8.20;99.90;;;;;;5031966;28;20044;-55
2022/11/25 05:46:20;;;;;;;21.42;6.70;;;8.20;99.90;;;;;;5049280;28;20495;-57
2022/11/25 05:48:45;;;;;;;24.00;6.88;;;8.20;99.90;;;;;;5050062;28;20041;-54
2022/11/25 05:51:11;;;;;;;19.13;6.80;;;8.20;99.90;;;;;;5048465;28;20041;-52
2022/11/25 05:53:37;;;;;;;20.48;6.53;;;8.20;99.90;;;;;;5051107;28;20104;-55
2022/11/25 05:56:05;;;;;;;19.60;7.32;;;8.20;99.90;;;;;;5026749;28;20041;-56
2022/11/25 05:58:31;;;;;;;18.10;7.15;;;8.20;99.90;;;;;;5047161;28;20423;-56
2022/11/25 06:00:57;;;;;;;18.88;7.18;;;8.20;99.90;;;;;;5047833;28;20037;-56
2022/11/25 06:03:24;;;;;;;17.83;6.85;;;8.20;99.90;;;;;;5048352;28;20144;-52
2022/11/25 06:05:50;;;;;;;18.67;6.83;;;8.20;99.90;;;;;;5049015;28;20064;-53
2022/11/25 06:08:16;;;;;;;17.90;7.55;;;8.20;99.90;;;;;;5046634;28;20503;-57
2022/11/25 06:10:41;;;;;;;18.00;6.35;;;8.20;99.90;;;;;;5041876;28;20044;-56
2022/11/25 06:13:08;;;;;;;20.35;7.50;;;8.20;99.90;;;;;;5041901;28;20124;-56
2022/11/25 06:15:34;;;;;;;17.95;6.43;;;8.20;99.90;;;;;;5043511;28;20049;-55
2022/11/25 06:17:59;;;;;;;16.63;6.75;;;8.20;99.90;;;;;;5044810;28;20045;-55
2022/11/25 06:20:26;;;;;;;18.35;6.28;;;8.20;99.90;;;;;;5049411;28;20076;-53
2022/11/25 06:22:52;;;;;;;22.35;6.80;;;8.20;99.90;;;;;;5032410;28;20076;-55
2022/11/25 06:25:18;;;;;;;19.27;6.20;;;8.20;99.90;;;;;;5044728;28;20107;-57
2022/11/25 06:27:43;;;;;;;22.02;6.53;;;8.20;99.90;;;;;;5046633;28;20037;-56
2022/11/25 06:30:11;;;;;;;21.25;6.80;;;8.20;99.90;;;;;;5043967;28;20104;-55
2022/11/25 06:32:37;;;;;;;22.88;6.70;;;8.20;99.90;;;;;;5042678;28;20048;-54
2022/11/25 06:35:03;;;;;;;17.90;6.47;;;8.20;99.90;;;;;;5028547;28;20103;-56
2022/11/25 06:37:28;;;;;;;20.13;6.90;;;8.20;99.90;;;;;;5050147;28;20045;-56
2022/11/25 06:39:54;;;;;;;14.27;6.05;;;8.10;99.90;;;;;;5046264;28;20514;-55
2022/11/25 06:42:19;;;;;;;19.55;6.82;;;8.10;99.90;;;;;;5046645;28;20033;-56
2022/11/25 06:44:45;;;;;;;19.30;6.43;;;8.10;99.90;;;;;;5045963;28;20033;-55
2022/11/25 06:47:11;;;;;;;18.73;6.22;;;8.10;99.90;;;;;;5044184;28;20045;-57
2022/11/25 06:49:36;;;;;;;21.45;6.30;;;8.10;99.90;;;;;;5044848;28;20041;-57
2022/11/25 06:52:02;;;;;;;15.65;6.35;;;8.20;99.90;;;;;;5043830;28;20423;-56
2022/11/25 06:54:27;;;;;;;18.85;5.68;;;8.20;99.90;;;;;;5048151;28;20095;-56
2022/11/25 06:56:53;;;;;;;18.45;5.93;;;8.10;99.90;;;;;;5040672;28;20037;-55
2022/11/25 06:59:20;;;;;;;22.38;6.60;;;8.20;99.90;;;;;;5043384;28;20414;-55
2022/11/25 07:01:46;;;;;;;18.35;6.70;;;8.20;99.90;;;;;;5042451;28;20043;-56
2022/11/25 07:04:12;;;;;;;18.98;5.93;;;8.20;99.90;;;;;;5048677;28;20614;-56
2022/11/25 07:06:37;;;;;;;19.90;6.18;;;8.20;99.90;;;;;;5042349;28;20045;-55
2022/11/25 07:09:04;;;;;;;14.20;6.00;;;8.10;99.90;;;;;;5010852;28;20095;-56
2022/11/25 07:11:35;;;;;;;16.40;5.85;;;8.10;99.90;;;;;;5045261;28;20391;-56
2022/11/25 07:14:08;;;;;;;20.83;5.97;;;8.10;99.90;;;;;;5046072;28;20398;-55
2022/11/25 07:16:36;;;;;;;17.05;5.45;;;8.20;99.90;;;;;;5030524;28;20483;-56
2022/11/25 07:19:01;;;;;;;16.48;6.00;;;8.10;99.90;;;;;;5048122;28;20029;-57
2022/11/25 07:21:29;;;;;;;16.10;6.13;;;8.20;99.90;;;;;;5047119;28;20071;-56
2022/11/25 07:23:57;;;;;;;17.00;5.83;;;8.20;99.90;;;;;;5052785;28;20053;-56
2022/11/25 07:26:25;;;;;;;16.67;5.47;;;8.10;99.90;;;;;;5051164;28;20295;-54
2022/11/25 07:28:53;;;;;;;15.73;5.68;;;8.10;99.90;;;;;;5048656;28;20044;-56
2022/11/25 07:31:24;;;;;;;20.73;5.57;;;8.20;99.90;;;;;;5046388;28;20127;-56
2022/11/25 07:33:55;;;;;;;15.98;5.75;;;8.10;99.90;;;;;;5047864;28;20384;-56
2022/11/25 07:36:21;;;;;;;22.60;5.93;;;8.10;99.90;;;;;;5028197;28;20064;-55
2022/11/25 07:38:48;;;;;;;14.55;5.60;;;8.10;99.90;;;;;;5024842;28;20099;-53
2022/11/25 07:41:19;;;;;;;18.58;5.28;;;8.00;99.90;;;;;;5025218;28;20440;-53
2022/11/25 07:44:01;;;;;;;12.43;4.65;;;8.00;99.90;;;;;;5025758;28;20037;-51
2022/11/25 07:46:32;;;;;;;12.85;4.93;;;8.00;99.90;;;;;;5028766;28;20087;-53
2022/11/25 07:49:04;;;;;;;12.30;4.97;;;7.90;99.90;;;;;;5027237;28;22182;-52
2022/11/25 07:51:37;;;;;;;11.93;5.13;;;7.90;99.90;;;;;;5025575;28;20496;-52
2022/11/25 07:54:05;;;;;;;15.38;4.30;;;7.90;99.90;;;;;;5026733;28;20506;-56
2022/11/25 07:56:33;;;;;;;14.90;4.85;;;7.80;99.90;;;;;;5026680;28;20041;-56
2022/11/25 07:58:59;;;;;;;14.98;4.72;;;7.80;99.90;;;;;;5025507;28;20120;-56
2022/11/25 08:01:25;;;;;;;14.27;4.93;;;7.80;99.90;;;;;;5024453;28;20251;-55
2022/11/25 08:03:51;;;;;;;12.73;4.32;;;7.80;99.90;;;;;;5032805;28;20493;-55
2022/11/25 08:06:20;;;;;;;20.15;5.72;;;7.70;99.90;;;;;;5029906;28;20064;-53
2022/11/25 08:08:46;;;;;;;13.02;4.55;;;7.70;99.90;;;;;;5025182;28;20096;-55
2022/11/25 08:11:15;;;;;;;13.93;5.35;;;7.70;99.90;;;;;;5026616;28;20029;-53
2022/11/25 08:13:40;;;;;;;14.57;4.30;;;7.60;99.90;;;;;;5020973;28;20042;-56
2022/11/25 08:16:07;;;;;;;11.25;4.28;;;7.60;99.90;;;;;;5027127;28;20103;-54
2022/11/25 08:18:32;;;;;;;14.10;5.07;;;7.60;99.90;;;;;;5026974;28;20332;-57
2022/11/25 08:21:00;;;;;;;16.50;4.50;;;7.60;99.90;;;;;;5029423;28;20119;-54
2022/11/25 08:23:25;;;;;;;19.10;4.93;;;7.60;99.90;;;;;;5027424;28;20045;-56
2022/11/25 08:25:51;;;;;;;9.73;4.30;;;7.70;99.90;;;;;;5029114;28;20045;-54
2022/11/25 08:28:17;;;;;;;15.05;4.80;;;7.70;99.90;;;;;;5028263;28;20034;-56
2022/11/25 08:30:42;;;;;;;12.95;4.85;;;7.70;99.90;;;;;;5027450;28;20414;-55
2022/11/25 08:33:08;;;;;;;13.30;5.05;;;7.80;99.90;;;;;;5027139;28;20079;-55
2022/11/25 08:35:36;;;;;;;17.13;4.88;;;7.80;99.90;;;;;;5042403;28;20464;-56
2022/11/25 08:38:06;;;;;;;16.65;5.03;;;7.90;99.90;;;;;;5046329;28;20553;-54
2022/11/25 08:40:34;;;;;;;16.48;5.78;;;7.90;99.90;;;;;;5047526;28;20056;-52
2022/11/25 08:42:59;;;;;;;15.40;5.40;;;7.90;99.90;;;;;;5048302;28;20049;-55
2022/11/25 08:45:25;;;;;;;14.98;5.90;;;8.00;99.90;;;;;;5048101;28;20043;-55
2022/11/25 08:47:50;;;;;;;10.23;5.03;;;8.10;99.90;;;;;;5045423;28;20483;-51
2022/11/25 08:50:16;;;;;;;18.05;6.00;;;8.10;99.90;;;;;;5047003;28;20064;-53
2022/11/25 08:52:42;;;;;;;15.65;6.15;;;8.10;99.90;;;;;;5030157;28;20763;-55
2022/11/25 08:55:08;;;;;;;17.98;6.65;;;8.20;99.90;;;;;;5046023;28;20037;-52
2022/11/25 08:57:34;;;;;;;13.15;6.53;;;8.30;99.90;;;;;;5048723;28;20041;-55
2022/11/25 08:59:59;;;;;;;14.88;6.22;;;8.40;99.90;;;;;;5049528;28;20037;-53
2022/11/25 09:02:25;;;;;;;13.27;6.32;;;8.50;99.90;;;;;;5049738;28;20433;-55
2022/11/25 09:04:51;;;;;;;16.73;6.30;;;8.50;99.90;;;;;;5051567;28;20033;-56
2022/11/25 09:07:17;;;;;;;14.23;6.28;;;8.60;99.90;;;;;;5048651;28;20497;-54
2022/11/25 09:09:43;;;;;;;15.40;6.35;;;8.60;99.90;;;;;;5048859;28;20033;-56
2022/11/25 09:12:08;;;;;;;12.82;6.20;;;8.70;99.90;;;;;;5048699;28;20133;-56
2022/11/25 09:14:34;;;;;;;12.52;6.53;;;8.70;99.90;;;;;;5049873;28;20140;-54
2022/11/25 09:17:00;;;;;;;15.90;7.03;;;8.70;99.90;;;;;;5048503;28;20533;-54
2022/11/25 09:19:27;;;;;;;15.15;6.00;;;8.80;99.90;;;;;;5051241;28;20075;-56
2022/11/25 09:21:53;;;;;;;15.07;6.13;;;8.80;99.90;;;;;;5043879;28;20368;-55
2022/11/25 09:24:19;;;;;;;16.13;6.72;;;8.80;99.90;;;;;;5044898;28;20045;-57
2022/11/25 09:26:45;;;;;;;13.60;6.20;;;8.90;99.90;;;;;;5048799;28;20045;-53
2022/11/25 09:29:12;;;;;;;15.00;6.45;;;8.80;99.90;;;;;;5050023;28;20506;-53
2022/11/25 09:31:38;;;;;;;11.18;5.97;;;8.80;99.90;;;;;;5049753;28;20123;-53
2022/11/25 09:34:04;;;;;;;13.80;6.40;;;8.90;99.90;;;;;;5048439;28;20041;-56
2022/11/25 09:36:30;;;;;;;16.33;6.22;;;9.00;99.90;;;;;;5048863;28;20051;-54
2022/11/25 09:38:55;;;;;;;8.57;5.47;;;8.90;99.90;;;;;;5050593;28;20463;-54
2022/11/25 09:47:13;;;;;;;11.05;5.65;;;9.00;99.90;;;;;;5047312;28;20049;-55
2022/11/25 09:49:55;;;;;;;10.57;6.43;;;9.10;99.90;;;;;;5047504;28;20094;-55
2022/11/25 09:52:48;;;;;;;10.07;5.40;;;9.40;99.90;;;;;;5046690;28;20037;-54
2022/11/25 09:55:16;;;;;;;11.73;5.75;;;9.20;99.90;;;;;;5040323;28;20071;-55
2022/11/25 09:57:55;;;;;;;10.40;4.95;;;9.10;99.90;;;;;;5040639;28;20051;-56
2022/11/25 10:00:21;;;;;;;10.18;4.90;;;9.20;99.90;;;;;;5028618;28;20045;-53
2022/11/25 10:02:55;;;;;;;14.00;5.22;;;9.20;99.90;;;;;;5043534;28;20082;-52
2022/11/25 10:05:26;;;;;;;10.50;5.13;;;9.50;99.90;;;;;;5030886;28;20055;-55
2022/11/25 10:08:21;;;;;;;10.52;5.07;;;9.20;99.90;;;;;;5042968;28;20043;-54
2022/11/25 10:10:51;;;;;;;11.23;5.03;;;9.40;99.90;;;;;;5045367;28;20090;-56
2022/11/25 10:13:52;;;;;;;14.40;4.90;;;9.30;99.90;;;;;;5045628;28;20090;-55
2022/11/25 10:16:31;;;;;;;11.02;4.95;;;9.40;99.90;;;;;;5036440;28;20446;-55
2022/11/25 10:19:11;;;;;;;11.75;4.50;;;9.30;99.90;;;;;;5046510;28;20048;-56
2022/11/25 10:21:37;;;;;;;10.88;4.50;;;;;;;;;;5047261;28;20040;-56
2022/11/25 10:24:04;;;;;;;10.35;4.55;;;9.40;99.90;;;;;;5043687;28;20145;-56
2022/11/25 10:26:39;;;;;;;10.60;4.20;;;9.50;99.90;;;;;;5042648;28;20053;-54
2022/11/25 10:29:15;;;;;;;10.77;3.92;;;9.60;99.90;;;;;;5046909;28;20045;-55
2022/11/25 10:31:42;;;;;;;7.70;4.00;;;9.60;99.90;;;;;;5046738;28;20053;-55
2022/11/25 10:34:33;;;;;;;12.20;4.20;;;9.60;99.90;;;;;;5045784;28;20087;-52
2022/11/25 10:37:01;;;;;;;11.70;3.75;;;9.60;99.90;;;;;;5051418;28;20119;-53
2022/11/25 10:39:30;;;;;;;11.40;4.00;;;9.70;99.90;;;;;;5053091;28;20087;-53
2022/11/25 10:42:06;;;;;;;10.85;3.80;;;9.70;99.90;;;;;;5035784;28;20045;-54
2022/11/25 10:44:36;;;;;;;9.85;3.90;;;9.70;99.90;;;;;;5052893;28;20067;-54
2022/11/25 10:47:11;;;;;;;10.73;3.78;;;9.80;99.90;;;;;;5051037;28;20099;-55
2022/11/25 10:50:04;;;;;;;10.82;4.18;;;9.80;99.90;;;;;;5048499;28;20499;-55
2022/11/25 10:52:36;;;;;;;10.63;3.92;;;9.90;99.90;;;;;;5047916;28;20053;-55
2022/11/25 10:55:18;;;;;;;11.82;3.80;;;9.90;99.90;;;;;;5028511;28;20048;-54
2022/11/25 10:57:44;;;;;;;12.85;4.60;;;9.90;99.90;;;;;;5046513;28;20037;-55
2022/11/25 11:00:30;;;;;;;13.50;4.10;;;9.90;99.90;;;;;;5050748;28;20513;-56
2022/11/25 11:02:58;;;;;;;8.68;3.72;;;10.00;99.90;;;;;;5051137;28;20072;-55
2022/11/25 11:05:29;;;;;;;9.00;3.53;;;10.10;99.90;;;;;;5049697;28;20098;-54
2022/11/25 11:08:13;;;;;;;12.15;4.68;;;10.00;99.90;;;;;;5049571;28;20041;-51
2022/11/25 11:10:39;;;;;;;9.13;3.70;;;10.10;99.90;;;;;;5050739;28;20044;-52
2022/11/25 11:13:29;;;;;;;9.55;3.40;;;10.20;99.90;;;;;;5052197;28;20083;-51
2022/11/25 11:15:54;;;;;;;12.38;3.78;;;10.20;99.90;;;;;;5050106;28;20045;-51
2022/11/25 11:18:38;;;;;;;8.88;3.28;;;10.50;99.90;;;;;;5034335;28;20537;-52
2022/11/25 11:21:06;;;;;;;14.48;3.90;;;10.50;99.90;;;;;;5050868;28;20407;-52
2022/11/25 11:23:47;;;;;;;12.32;3.83;;;10.60;99.90;;;;;;5051919;28;20094;-52
2022/11/25 11:26:21;;;;;;;9.57;3.72;;;10.60;99.90;;;;;;5050188;28;20075;-53
2022/11/25 11:28:47;;;;;;;8.07;3.05;;;10.40;99.90;;;;;;5052546;28;20404;-53
2022/11/25 11:31:24;;;;;;;8.88;3.78;;;10.60;99.90;;;;;;5049946;28;20052;-55
2022/11/25 11:34:15;;;;;;;8.90;3.07;;;10.50;99.90;;;;;;5047955;28;20399;-52
2022/11/25 11:36:58;;;;;;;10.40;3.13;;;10.60;99.90;;;;;;5005619;28;20441;-50
2022/11/25 11:39:37;;;;;;;12.75;3.75;;;10.60;99.90;;;;;;5010401;28;20113;-52
2022/11/25 11:42:26;;;;;;;11.40;3.13;;;10.60;99.90;;;;;;5010601;28;20042;-52
2022/11/25 11:45:03;;;;;;;8.60;2.75;;;10.70;99.90;;;;;;5011990;28;20038;-54
2022/11/25 11:47:54;;;;;;;10.48;3.15;;;10.70;99.90;;;;;;5008875;28;20049;-53
2022/11/25 11:50:23;;;;;;;11.80;3.10;;;;;;;;;;5009928;28;20065;-54
2022/11/25 11:53:10;;;;;;;11.32;3.10;;;10.80;99.90;;;;;;5007779;28;20137;-55
2022/11/25 11:55:54;;;;;;;9.35;2.95;;;10.80;99.90;;;;;;5010430;28;20046;-51
2022/11/25 11:58:56;;;;;;;8.68;2.70;;;10.80;99.90;;;;;;5006561;28;20531;-54
2022/11/25 12:01:47;;;;;;;10.00;2.80;;;10.80;99.90;;;;;;5005463;28;20136;-52
2022/11/25 12:04:39;;;;;;;8.50;2.72;;;10.90;99.90;;;;;;5010514;28;20046;-55
2022/11/25 12:07:14;;;;;;;11.43;2.78;;;10.90;99.90;;;;;;5009156;28;20049;-50
2022/11/25 12:10:05;;;;;;;10.38;3.00;;;10.90;99.90;;;;;;5007327;28;20132;-51
2022/11/25 12:12:49;;;;;;;10.70;2.90;;;10.90;99.90;;;;;;5009910;28;20053;-52
2022/11/25 12:15:20;;;;;;;8.45;3.22;;;10.90;99.90;;;;;;5055742;23;20849;-55
2022/11/25 12:17:54;;;;;;;12.70;2.92;;;10.90;99.90;;;;;;5059328;28;20036;-50
2022/11/25 12:20:22;;;;;;;7.93;3.30;;;10.90;99.90;;;;;;5067964;28;20119;-52
2022/11/25 12:23:07;;;;;;;9.85;2.58;;;10.90;99.90;;;;;;5053370;28;20127;-52
2022/11/25 12:25:38;;;;;;;10.07;3.10;;;11.00;99.90;;;;;;5050804;28;20040;-51
2022/11/25 12:28:06;;;;;;;9.75;2.85;;;11.20;99.90;;;;;;5052690;28;20065;-52
2022/11/25 12:30:45;;;;;;;7.55;2.63;;;11.20;99.90;;;;;;5050824;28;20041;-51
2022/11/25 12:33:20;;;;;;;11.13;2.75;;;11.30;99.90;;;;;;5044707;28;20113;-55
2022/11/25 12:35:57;;;;;;;14.48;3.78;;;11.30;99.90;;;;;;5047765;28;20045;-56
2022/11/25 12:38:32;;;;;;;10.40;3.28;;;11.20;99.90;;;;;;5043273;28;20076;-52
2022/11/25 12:41:03;;;;;;;11.38;3.08;;;11.20;99.90;;;;;;5046496;28;20051;-51
2022/11/25 12:43:45;;;;;;;15.13;3.67;;;11.10;99.90;;;;;;5044819;28;20045;-53
2022/11/25 12:46:32;;;;;;;11.93;3.42;;;11.00;99.90;;;;;;5051449;28;20054;-54
2022/11/25 12:48:58;;;;;;;13.15;3.67;;;11.00;99.90;;;;;;5052515;28;20372;-52
2022/11/25 12:51:50;;;;;;;13.68;3.25;;;11.00;99.90;;;;;;5049689;28;20457;-55
2022/11/25 12:54:21;;;;;;;10.68;3.05;;;11.00;99.90;;;;;;5050728;28;20087;-51
2022/11/25 12:57:06;;;;;;;11.30;2.67;;;11.00;99.90;;;;;;5050856;28;20080;-51
2022/11/25 13:00:03;;;;;;;13.02;3.22;;;11.00;99.90;;;;;;5052882;28;20136;-56
2022/11/25 13:02:52;;;;;;;13.70;3.15;;;11.00;99.90;;;;;;5048826;28;20075;-51
2022/11/25 13:05:40;;;;;;;11.73;3.28;;;11.00;99.90;;;;;;5049879;28;20507;-54
2022/11/25 13:08:33;;;;;;;11.18;3.22;;;10.90;99.90;;;;;;5045464;28;20053;-55
2022/11/25 13:11:35;;;;;;;11.98;3.15;;;10.90;99.90;;;;;;5047567;28;20064;-55
2022/11/25 13:14:13;;;;;;;12.02;3.17;;;10.90;99.90;;;;;;5055054;28;20071;-52